createdAt,value
2022-11-25T00:01:41.181Z,8.90
2022-11-25T00:04:09.624Z,8.90
2022-11-25T00:06:39.352Z,8.80
2022-11-25T00:09:11.381Z,8.80
2022-11-25T00:11:41.670Z,8.80
2022-11-25T00:14:14.782Z,8.80
2022-11-25T00:16:48.175Z,8.80
2022-11-25T00:19:17.565Z,8.70
2022-11-25T00:21:47.410Z,8.70
2022-11-25T00:24:17.530Z,8.70
2022-11-25T00:26:46.029Z,8.80
2022-11-25T00:29:15.296Z,8.70
2022-11-25T00:31:43.833Z,8.70
2022-11-25T00:34:15.407Z,8.60
2022-11-25T00:36:44.072Z,8.60
2022-11-25T00:39:15.926Z,8.60
2022-11-25T00:42:02.620Z,8.60
2022-11-25T00:44:37.828Z,8.70
2022-11-25T00:47:10.388Z,8.60
2022-11-25T00:49:40.476Z,8.60
2022-11-25T00:52:09.850Z,8.60
2022-11-25T00:54:39.764Z,8.60
2022-11-25T00:57:08.204Z,8.60
2022-11-25T00:59:36.710Z,8.50
2022-11-25T01:02:05.325Z,8.50
2022-11-25T01:04:34.539Z,8.50
2022-11-25T01:07:03.392Z,8.50
2022-11-25T01:09:32.644Z,8.50
2022-11-25T01:12:02.689Z,8.50
2022-11-25T01:14:32.971Z,8.50
2022-11-25T01:17:02.102Z,8.50
2022-11-25T01:19:30.686Z,8.40
2022-11-25T01:22:01.461Z,8.50
2022-11-25T01:24:29.977Z,8.50
2022-11-25T01:26:58.397Z,8.40
2022-11-25T01:29:28.227Z,8.40
2022-11-25T01:31:57.531Z,8.40
2022-11-25T01:34:28.548Z,8.40
2022-11-25T01:36:58.849Z,8.40
2022-11-25T01:39:32.511Z,8.40
2022-11-25T01:42:02.132Z,8.40
2022-11-25T01:44:34.044Z,8.40
2022-11-25T01:47:10.633Z,8.50
2022-11-25T01:49:43.564Z,8.30
2022-11-25T01:52:18.270Z,8.30
2022-11-25T01:54:53.569Z,8.30
2022-11-25T01:57:28.209Z,8.30
2022-11-25T02:00:01.917Z,8.30
2022-11-25T02:02:33.426Z,8.30
2022-11-25T02:05:05.190Z,8.30
2022-11-25T02:07:38.157Z,8.30
2022-11-25T02:10:13.900Z,8.30
2022-11-25T02:12:47.276Z,8.30
2022-11-25T02:15:18.508Z,8.30
2022-11-25T02:17:47.292Z,8.30
2022-11-25T02:20:18.097Z,8.30
2022-11-25T02:22:58.952Z,8.30
2022-11-25T02:25:32.100Z,8.20
2022-11-25T02:28:04.750Z,8.20
2022-11-25T02:30:34.204Z,8.20
2022-11-25T02:33:03.304Z,8.20
2022-11-25T02:35:35.404Z,8.20
2022-11-25T02:38:11.135Z,8.20
2022-11-25T02:40:48.677Z,8.20
2022-11-25T02:43:18.026Z,8.40
2022-11-25T02:45:58.482Z,8.20
2022-11-25T02:48:52.861Z,8.30
2022-11-25T02:51:22.073Z,8.30
2022-11-25T02:53:51.365Z,8.20
2022-11-25T02:56:24.786Z,8.20
2022-11-25T02:58:54.644Z,8.20
2022-11-25T03:01:23.913Z,8.20
2022-11-25T03:03:52.507Z,8.20
2022-11-25T03:06:20.970Z,8.20
2022-11-25T03:08:52.438Z,8.20
2022-11-25T03:11:43.411Z,8.20
2022-11-25T03:14:12.476Z,8.20
2022-11-25T03:16:41.163Z,8.20
2022-11-25T03:19:10.064Z,8.20
2022-11-25T03:21:38.555Z,8.20
2022-11-25T03:24:08.176Z,8.20
2022-11-25T03:26:38.018Z,8.20
2022-11-25T03:29:06.452Z,8.20
2022-11-25T03:31:36.679Z,8.20
2022-11-25T03:34:05.360Z,8.20
2022-11-25T03:36:34.010Z,8.20
2022-11-25T03:39:02.666Z,8.20
2022-11-25T03:41:31.154Z,8.30
2022-11-25T03:44:01.062Z,8.30
2022-11-25T03:46:29.618Z,8.20
2022-11-25T03:48:58.847Z,8.20
2022-11-25T03:51:27.429Z,8.20
2022-11-25T03:53:55.962Z,8.20
2022-11-25T03:56:26.111Z,8.20
2022-11-25T03:58:54.943Z,8.30
2022-11-25T04:01:26.025Z,8.20
2022-11-25T04:03:54.701Z,8.20
2022-11-25T04:06:24.029Z,8.20
2022-11-25T04:08:55.077Z,8.30
2022-11-25T04:11:43.697Z,8.20
2022-11-25T04:14:12.291Z,8.20
2022-11-25T04:16:42.322Z,8.20
2022-11-25T04:19:11.139Z,8.30
2022-11-25T04:21:39.708Z,8.20
2022-11-25T04:24:09.596Z,8.30
2022-11-25T04:26:38.064Z,8.20
2022-11-25T04:29:06.709Z,8.30
2022-11-25T04:31:35.645Z,8.40
2022-11-25T04:34:06.226Z,8.30
2022-11-25T04:36:35.904Z,8.40
2022-11-25T04:39:04.999Z,8.30
2022-11-25T04:41:34.568Z,8.20
2022-11-25T04:44:03.198Z,8.30
2022-11-25T04:46:38.659Z,8.30
2022-11-25T04:49:08.676Z,8.30
2022-11-25T04:51:37.168Z,8.30
2022-11-25T04:54:09.664Z,8.30
2022-11-25T04:56:40.987Z,8.30
2022-11-25T04:59:27.795Z,8.30
2022-11-25T05:01:56.332Z,8.30
2022-11-25T05:04:36.796Z,8.30
2022-11-25T05:07:05.774Z,8.40
2022-11-25T05:09:35.085Z,8.30
2022-11-25T05:12:31.447Z,8.30
2022-11-25T05:15:01.202Z,8.30
2022-11-25T05:17:33.103Z,8.40
2022-11-25T05:20:04.788Z,8.30
2022-11-25T05:22:36.624Z,8.30
2022-11-25T05:25:07.663Z,8.30
2022-11-25T05:27:41.568Z,8.30
2022-11-25T05:30:12.604Z,8.30
2022-11-25T05:32:41.605Z,8.30
2022-11-25T05:35:13.734Z,8.30
2022-11-25T05:37:42.283Z,8.30
2022-11-25T05:40:13.046Z,8.30
2022-11-25T05:43:01.474Z,8.30
2022-11-25T05:45:34.582Z,8.30
2022-11-25T05:48:02.994Z,8.30
2022-11-25T05:50:32.926Z,8.30
2022-11-25T05:53:34.025Z,8.30
2022-11-25T05:56:06.820Z,8.30
2022-11-25T05:58:55.067Z,8.30
2022-11-25T06:01:27.470Z,8.30
2022-11-25T06:03:56.858Z,8.30
2022-11-25T06:06:26.695Z,8.30
2022-11-25T06:08:56.068Z,8.30
2022-11-25T06:11:26.483Z,8.30
2022-11-25T06:13:57.423Z,8.30
2022-11-25T06:16:27.016Z,8.20
2022-11-25T06:19:06.808Z,8.20
2022-11-25T06:21:40.254Z,8.40
2022-11-25T06:24:09.437Z,8.30
2022-11-25T06:26:42.208Z,8.30
2022-11-25T06:29:10.890Z,8.40
2022-11-25T06:31:41.079Z,8.30
2022-11-25T06:34:32.163Z,8.40
2022-11-25T06:37:03.538Z,8.40
2022-11-25T06:39:31.934Z,8.30
2022-11-25T06:42:00.328Z,8.40
2022-11-25T06:44:28.862Z,8.30
2022-11-25T06:46:57.354Z,8.30
2022-11-25T06:49:26.149Z,8.40
2022-11-25T06:51:54.912Z,8.40
2022-11-25T06:54:25.063Z,8.40
2022-11-25T06:56:53.849Z,8.40
2022-11-25T06:59:22.654Z,8.40
2022-11-25T07:01:51.454Z,8.40
2022-11-25T07:04:19.987Z,8.40
2022-11-25T07:06:50.377Z,8.40
2022-11-25T07:09:19.695Z,8.50
2022-11-25T07:11:50.229Z,8.50
2022-11-25T07:14:19.309Z,8.50
2022-11-25T07:16:47.960Z,8.50
2022-11-25T07:19:19.606Z,8.50
2022-11-25T07:21:48.576Z,8.50
2022-11-25T07:24:18.691Z,8.50
2022-11-25T07:26:48.861Z,8.50
2022-11-25T07:32:10.582Z,8.60
2022-11-25T07:34:39.594Z,8.60
2022-11-25T07:37:08.111Z,8.60
2022-11-25T07:39:37.112Z,8.60
2022-11-25T07:42:07.205Z,8.60
2022-11-25T07:44:35.824Z,8.60
2022-11-25T07:47:26.996Z,8.60
2022-11-25T07:49:55.403Z,8.60
2022-11-25T07:52:23.811Z,8.60
2022-11-25T07:54:52.211Z,8.80
2022-11-25T07:57:22.034Z,8.70
2022-11-25T07:59:50.439Z,8.70
2022-11-25T08:02:18.817Z,8.70
2022-11-25T08:04:47.178Z,8.70
2022-11-25T08:07:15.696Z,8.70
2022-11-25T08:09:44.279Z,8.70
2022-11-25T08:12:12.801Z,8.70
2022-11-25T08:14:42.706Z,8.80
2022-11-25T08:17:12.194Z,8.80
2022-11-25T08:19:41.491Z,8.70
2022-11-25T08:22:09.904Z,8.80
2022-11-25T08:24:38.480Z,8.80
2022-11-25T08:27:07.286Z,8.80
2022-11-25T08:29:35.977Z,8.90
2022-11-25T08:32:11.819Z,8.90
2022-11-25T08:34:40.624Z,8.90
2022-11-25T08:37:11.520Z,8.90
2022-11-25T08:39:52.279Z,8.90
2022-11-25T08:42:21.769Z,8.90
2022-11-25T08:44:55.514Z,8.90
2022-11-25T08:47:26.131Z,9.10
2022-11-25T08:49:55.701Z,9.00
2022-11-25T08:52:24.800Z,9.10
2022-11-25T08:54:53.259Z,9.00
2022-11-25T08:57:21.813Z,9.00
2022-11-25T08:59:50.337Z,9.00
2022-11-25T09:02:19.731Z,9.00
2022-11-25T09:04:49.746Z,9.10
2022-11-25T09:07:18.351Z,9.10
2022-11-25T09:09:46.990Z,9.10
2022-11-25T09:12:15.485Z,9.10
2022-11-25T09:14:44.120Z,9.20
2022-11-25T09:17:15.858Z,9.20
2022-11-25T09:19:44.434Z,9.20
2022-11-25T09:22:14.460Z,9.20
2022-11-25T09:24:43.774Z,9.20
2022-11-25T09:27:12.325Z,9.30
2022-11-25T09:29:41.014Z,9.30
2022-11-25T09:32:09.732Z,9.40
2022-11-25T09:34:38.745Z,9.40
2022-11-25T09:37:07.597Z,9.50
2022-11-25T09:39:37.926Z,9.60
2022-11-25T09:42:56.908Z,9.60
2022-11-25T09:45:50.974Z,9.70
2022-11-25T09:48:49.675Z,9.80
2022-11-25T09:51:24.388Z,9.90
2022-11-25T09:53:56.200Z,9.90
2022-11-25T09:56:36.725Z,10.00
2022-11-25T09:59:13.486Z,10.00
2022-11-25T10:01:49.639Z,10.10
2022-11-25T10:04:27.201Z,10.10
2022-11-25T10:07:01.156Z,10.20
2022-11-25T10:09:33.736Z,10.20
2022-11-25T10:12:11.130Z,10.30
2022-11-25T10:14:46.375Z,10.30
2022-11-25T10:17:25.060Z,10.30
2022-11-25T10:19:59.986Z,10.40
2022-11-25T10:22:33.606Z,10.40
2022-11-25T10:25:11.013Z,10.40
2022-11-25T10:27:47.361Z,10.50
2022-11-25T10:30:21.301Z,10.70
2022-11-25T10:33:00.799Z,10.50
2022-11-25T10:35:36.439Z,10.50
2022-11-25T10:38:18.585Z,10.80
2022-11-25T10:40:51.512Z,10.60
2022-11-25T10:43:21.499Z,10.60
2022-11-25T10:46:00.092Z,10.70
2022-11-25T10:48:50.363Z,10.70
2022-11-25T10:51:37.458Z,10.70
2022-11-25T10:54:18.100Z,10.70
2022-11-25T10:57:06.415Z,10.70
2022-11-25T10:59:39.752Z,10.80
2022-11-25T11:02:20.384Z,10.80
2022-11-25T11:04:58.462Z,11.00
2022-11-25T11:07:29.918Z,10.90
2022-11-25T11:10:20.725Z,10.90
2022-11-25T11:12:58.957Z,10.90
2022-11-25T11:15:31.119Z,10.90
2022-11-25T11:18:02.114Z,10.90
2022-11-25T11:20:32.260Z,10.90
2022-11-25T11:23:09.356Z,10.90
2022-11-25T11:25:39.735Z,10.90
2022-11-25T11:28:28.164Z,11.00
2022-11-25T11:31:04.342Z,11.00
2022-11-25T11:33:39.029Z,11.00
2022-11-25T11:36:51.286Z,11.10
2022-11-25T11:39:49.369Z,11.00
2022-11-25T11:42:27.329Z,11.00
2022-11-25T11:45:07.148Z,11.00
2022-11-25T11:47:48.191Z,11.00
2022-11-25T11:50:28.723Z,11.10
2022-11-25T11:53:04.103Z,11.10
2022-11-25T11:56:26.856Z,11.20
2022-11-25T11:59:00.774Z,11.10
2022-11-25T12:01:46.541Z,11.10
2022-11-25T12:04:25.947Z,11.10
2022-11-25T12:07:04.450Z,11.20
2022-11-25T12:09:38.534Z,11.20
2022-11-25T12:12:12.713Z,11.20
2022-11-25T12:14:44.872Z,11.20
2022-11-25T12:17:20.548Z,11.20
2022-11-25T12:19:58.735Z,11.30
2022-11-25T12:22:31.529Z,11.30
2022-11-25T12:25:08.809Z,11.30
2022-11-25T12:27:42.375Z,11.40
2022-11-25T12:30:16.120Z,11.40
2022-11-25T12:33:00.837Z,11.40
2022-11-25T12:35:50.916Z,11.40
2022-11-25T12:38:32.405Z,11.70
2022-11-25T12:41:10.750Z,11.50
2022-11-25T12:43:47.745Z,11.60
2022-11-25T12:46:27.141Z,11.60
2022-11-25T12:48:58.254Z,11.60
2022-11-25T12:51:49.130Z,11.60
2022-11-25T12:54:42.331Z,11.70
2022-11-25T12:57:41.942Z,11.70
2022-11-25T13:03:39.140Z,11.80
2022-11-25T13:06:45.297Z,11.80
2022-11-25T13:09:30.695Z,11.90
2022-11-25T13:12:17.578Z,11.90
2022-11-25T13:15:27.035Z,11.90
2022-11-25T13:18:01.551Z,12.00
2022-11-25T13:20:46.209Z,12.00
2022-11-25T13:23:50.726Z,12.00
2022-11-25T13:26:49.590Z,12.00
2022-11-25T13:30:01.435Z,12.00
2022-11-25T13:32:40.360Z,12.10
2022-11-25T13:35:54.766Z,12.10
2022-11-25T13:39:06.790Z,12.10
2022-11-25T13:41:45.578Z,12.10
2022-11-25T13:44:28.040Z,12.10
2022-11-25T13:46:58.717Z,12.10
2022-11-25T13:49:44.993Z,12.20
2022-11-25T13:52:42.682Z,12.20
2022-11-25T13:55:34.080Z,12.20
2022-11-25T13:58:08.367Z,12.20
2022-11-25T14:01:06.739Z,12.20
2022-11-25T14:04:00.267Z,12.20
2022-11-25T14:06:52.527Z,12.20
2022-11-25T14:09:36.517Z,12.20
2022-11-25T14:12:28.529Z,12.30
2022-11-25T14:15:30.656Z,12.30
2022-11-25T14:22:08.950Z,12.30
2022-11-25T14:24:40.084Z,12.30
2022-11-25T14:27:19.299Z,12.30
2022-11-25T14:29:53.920Z,12.30
2022-11-25T14:32:29.822Z,12.40
2022-11-25T14:35:04.777Z,12.30
2022-11-25T14:37:40.761Z,12.40
2022-11-25T14:40:16.947Z,12.40
2022-11-25T14:42:51.365Z,12.30
2022-11-25T14:45:26.710Z,12.30
2022-11-25T14:47:55.135Z,12.40
2022-11-25T14:50:34.773Z,12.40
2022-11-25T14:53:08.219Z,12.40
2022-11-25T14:55:38.164Z,12.40
2022-11-25T14:58:08.196Z,12.40
2022-11-25T15:00:36.669Z,12.40
2022-11-25T15:03:06.719Z,12.40
2022-11-25T15:05:38.124Z,12.40
2022-11-25T15:08:14.124Z,12.40
2022-11-25T15:10:51.052Z,12.40
2022-11-25T15:13:34.279Z,12.40
2022-11-25T15:16:09.464Z,12.40
2022-11-25T15:18:39.368Z,12.50
2022-11-25T15:21:08.218Z,12.50
2022-11-25T15:23:39.514Z,12.50
2022-11-25T15:26:19.531Z,12.40
2022-11-25T15:28:55.432Z,12.40
2022-11-25T15:31:29.177Z,12.50
2022-11-25T15:34:00.811Z,12.50
2022-11-25T15:36:29.796Z,12.50
2022-11-25T15:39:16.364Z,12.50
2022-11-25T15:41:46.729Z,12.40
2022-11-25T15:44:24.507Z,12.50
2022-11-25T15:47:00.343Z,12.50
2022-11-25T15:49:30.086Z,12.50
2022-11-25T15:52:04.335Z,12.40
2022-11-25T15:54:39.707Z,12.40
2022-11-25T15:57:19.236Z,12.40
2022-11-25T15:59:52.655Z,12.40
2022-11-25T16:02:53.857Z,12.40
2022-11-25T16:05:49.344Z,12.40
2022-11-25T16:08:42.555Z,12.40
2022-11-25T16:11:19.361Z,12.40
2022-11-25T16:13:49.375Z,12.40
2022-11-25T16:16:24.108Z,12.40
2022-11-25T16:19:16.977Z,12.40
2022-11-25T16:21:58.177Z,12.30
2022-11-25T16:24:47.442Z,12.30
2022-11-25T16:27:25.719Z,12.30
2022-11-25T16:29:58.122Z,12.30
2022-11-25T16:32:30.099Z,12.30
2022-11-25T16:35:12.277Z,12.30
2022-11-25T16:37:45.423Z,12.30
2022-11-25T16:40:18.995Z,12.30
2022-11-25T16:42:50.547Z,12.20
2022-11-25T16:45:23.123Z,12.20
2022-11-25T16:47:52.969Z,12.20
2022-11-25T16:50:22.481Z,12.20
2022-11-25T16:52:51.020Z,12.20
2022-11-25T16:55:19.496Z,12.10
2022-11-25T16:57:48.301Z,12.10
2022-11-25T17:00:48.892Z,12.10
2022-11-25T17:03:19.587Z,12.10
2022-11-25T17:05:48.522Z,12.10
2022-11-25T17:08:17.358Z,12.10
2022-11-25T17:10:46.888Z,12.10
2022-11-25T17:13:21.823Z,12.00
2022-11-25T17:15:51.151Z,12.00
2022-11-25T17:18:22.713Z,12.00
2022-11-25T17:20:51.231Z,12.00
2022-11-25T17:23:22.426Z,12.00
2022-11-25T17:25:51.804Z,12.00
2022-11-25T17:28:22.415Z,11.90
2022-11-25T17:30:50.890Z,12.00
2022-11-25T17:33:22.061Z,11.90
2022-11-25T17:35:50.535Z,11.90
2022-11-25T17:38:21.996Z,11.90
2022-11-25T17:40:50.891Z,11.90
2022-11-25T17:43:21.759Z,11.90
2022-11-25T17:45:50.377Z,11.90
2022-11-25T17:48:20.927Z,11.90
2022-11-25T17:50:49.813Z,11.90
2022-11-25T17:53:18.253Z,11.90
2022-11-25T17:55:46.707Z,11.90
2022-11-25T17:58:15.944Z,11.90
2022-11-25T18:00:45.254Z,11.90
2022-11-25T18:03:15.413Z,11.90
2022-11-25T18:05:46.216Z,11.90
2022-11-25T18:08:14.853Z,11.90
2022-11-25T18:10:47.005Z,11.90
2022-11-25T18:13:17.128Z,11.90
2022-11-25T18:15:45.872Z,11.80
2022-11-25T18:18:21.567Z,11.80
2022-11-25T18:20:51.760Z,11.80
2022-11-25T18:23:20.638Z,11.80
2022-11-25T18:25:49.778Z,11.80
2022-11-25T18:28:23.449Z,11.80
2022-11-25T18:30:54.391Z,11.80
2022-11-25T18:33:23.035Z,11.80
2022-11-25T18:35:53.321Z,11.70
2022-11-25T18:38:21.884Z,11.70
2022-11-25T18:40:53.890Z,11.70
2022-11-25T18:43:28.596Z,11.70
2022-11-25T18:45:57.403Z,11.50
2022-11-25T18:48:27.969Z,11.70
2022-11-25T18:50:58.244Z,11.70
2022-11-25T18:53:33.765Z,11.70
2022-11-25T18:56:02.420Z,11.70
2022-11-25T18:58:32.701Z,11.70
2022-11-25T19:01:06.092Z,11.70
2022-11-25T19:03:35.004Z,11.70
2022-11-25T19:06:05.855Z,11.70
2022-11-25T19:08:34.717Z,11.70
2022-11-25T19:11:03.681Z,11.70
2022-11-25T19:13:35.541Z,11.70
2022-11-25T19:16:13.461Z,11.70
2022-11-25T19:18:44.347Z,11.70
2022-11-25T19:21:17.219Z,11.70
2022-11-25T19:23:46.688Z,11.70
2022-11-25T19:26:18.825Z,11.70
2022-11-25T19:28:52.514Z,11.70
2022-11-25T19:31:22.039Z,11.70
2022-11-25T19:33:52.471Z,11.70
2022-11-25T19:36:26.595Z,11.70
2022-11-25T19:38:55.487Z,11.70
2022-11-25T19:41:23.998Z,11.70
2022-11-25T19:43:53.069Z,11.70
2022-11-25T19:46:33.010Z,11.70
2022-11-25T19:49:06.806Z,11.70
2022-11-25T19:51:37.169Z,11.70
2022-11-25T19:54:07.344Z,11.70
2022-11-25T19:56:37.674Z,11.70
2022-11-25T19:59:07.190Z,11.70
2022-11-25T20:01:40.581Z,11.70
2022-11-25T20:04:17.004Z,11.70
2022-11-25T20:06:48.078Z,11.70
2022-11-25T20:09:17.609Z,11.70
2022-11-25T20:11:47.490Z,11.70
2022-11-25T20:14:16.007Z,11.70
2022-11-25T20:16:45.042Z,11.70
2022-11-25T20:19:18.993Z,11.70
2022-11-25T20:21:51.914Z,11.70
2022-11-25T20:24:22.328Z,11.70
2022-11-25T20:26:51.711Z,11.70
2022-11-25T20:29:27.532Z,11.70
2022-11-25T20:31:59.726Z,11.70
2022-11-25T20:34:28.442Z,11.70
2022-11-25T20:36:59.885Z,11.70
2022-11-25T20:39:28.809Z,11.70
2022-11-25T20:41:57.412Z,11.70
2022-11-25T20:44:28.566Z,11.70
2022-11-25T20:46:57.801Z,11.70
2022-11-25T20:49:29.319Z,11.70
2022-11-25T20:52:01.164Z,11.70
2022-11-25T20:54:32.911Z,11.70
2022-11-25T20:57:01.934Z,11.70
2022-11-25T20:59:31.112Z,11.70
2022-11-25T21:02:00.408Z,11.70
2022-11-25T21:04:28.951Z,11.70
2022-11-25T21:06:58.718Z,11.70
2022-11-25T21:09:33.045Z,11.70
2022-11-25T21:12:02.425Z,11.70
2022-11-25T21:14:31.982Z,11.70
2022-11-25T21:17:00.579Z,11.70
2022-11-25T21:19:29.446Z,11.70
2022-11-25T21:22:02.178Z,11.70
2022-11-25T21:24:33.522Z,11.70
2022-11-25T21:27:09.998Z,11.60
2022-11-25T21:29:42.727Z,11.60
2022-11-25T21:32:22.999Z,11.60
2022-11-25T21:34:51.849Z,11.60
2022-11-25T21:37:35.042Z,11.60
2022-11-25T21:40:06.016Z,11.60
2022-11-25T21:42:35.522Z,11.60
2022-11-25T21:45:05.139Z,11.60
2022-11-25T21:47:33.747Z,11.60
2022-11-25T21:50:02.838Z,11.50
2022-11-25T21:52:33.033Z,11.50
2022-11-25T21:55:02.071Z,11.50
2022-11-25T21:57:31.251Z,11.50
2022-11-25T22:00:00.007Z,11.50
2022-11-25T22:02:29.123Z,11.50
2022-11-25T22:04:59.279Z,11.40
2022-11-25T22:07:30.781Z,11.40
2022-11-25T22:10:01.265Z,11.40
2022-11-25T22:12:34.389Z,11.40
2022-11-25T22:15:12.881Z,11.40
2022-11-25T22:17:41.371Z,11.40
2022-11-25T22:20:29.434Z,11.30
2022-11-25T22:22:58.146Z,11.30
2022-11-25T22:25:31.366Z,11.30
2022-11-25T22:27:59.929Z,11.30
2022-11-25T22:30:28.323Z,11.20
2022-11-25T22:33:02.147Z,11.20
2022-11-25T22:35:30.956Z,11.20
2022-11-25T22:37:59.403Z,11.20
2022-11-25T22:40:29.307Z,11.10
2022-11-25T22:42:58.132Z,11.10
2022-11-25T22:45:32.534Z,11.10
2022-11-25T22:48:04.974Z,11.10
2022-11-25T22:50:35.400Z,11.10
2022-11-25T22:53:03.969Z,11.00
2022-11-25T22:55:35.014Z,11.00
2022-11-25T22:58:04.610Z,11.00
2022-11-25T23:00:36.388Z,10.90
2022-11-25T23:03:08.543Z,10.90
2022-11-25T23:05:40.960Z,10.90
2022-11-25T23:08:14.712Z,10.90
2022-11-25T23:10:45.851Z,10.90
2022-11-25T23:13:17.072Z,10.90
2022-11-25T23:15:51.013Z,10.80
2022-11-25T23:18:26.827Z,10.80
2022-11-25T23:20:55.607Z,10.80
2022-11-25T23:23:28.093Z,10.80
2022-11-25T23:25:58.949Z,10.80
2022-11-25T23:28:27.738Z,10.70
2022-11-25T23:30:58.312Z,10.70
2022-11-25T23:33:32.294Z,10.70
2022-11-25T23:36:06.126Z,10.70
2022-11-25T23:38:43.718Z,10.60
2022-11-25T23:41:16.893Z,10.60
2022-11-25T23:43:45.664Z,10.60
2022-11-25T23:46:16.984Z,10.60
2022-11-25T23:48:53.443Z,10.60
2022-11-25T23:51:23.639Z,10.60
2022-11-25T23:53:52.941Z,10.50
2022-11-25T23:56:23.463Z,10.50
2022-11-25T23:58:51.898Z,10.50
